sensor_id;sensor_type;location;lat;lon;timestamp;P1;durP1;ratioP1;P2;durP2;ratioP2
59922;SDS011;45778;51.142;3.732;2023-01-29T00:02:19;46.55;;;29.27;;
59922;SDS011;45778;51.142;3.732;2023-01-29T00:04:45;44.28;;;27.17;;
59922;SDS011;45778;51.142;3.732;2023-01-29T00:07:11;42.75;;;28.58;;
59922;SDS011;45778;51.142;3.732;2023-01-29T00:09:36;40.03;;;26.10;;
59922;SDS011;45778;51.142;3.732;2023-01-29T00:12:02;45.08;;;28.83;;
59922;SDS011;45778;51.142;3.732;2023-01-29T00:14:28;44.58;;;27.90;;
59922;SDS011;45778;51.142;3.732;2023-01-29T00:16:54;45.10;;;27.30;;
59922;SDS011;45778;51.142;3.732;2023-01-29T00:19:19;43.53;;;27.55;;
59922;SDS011;45778;51.142;3.732;2023-01-29T00:21:45;42.75;;;27.52;;
59922;SDS011;45778;51.142;3.732;2023-01-29T00:24:11;40.80;;;25.48;;
59922;SDS011;45778;51.142;3.732;2023-01-29T00:26:37;43.25;;;26.88;;
59922;SDS011;45778;51.142;3.732;2023-01-29T00:29:04;44.65;;;28.33;;
59922;SDS011;45778;51.142;3.732;2023-01-29T00:31:30;45.33;;;26.95;;
59922;SDS011;45778;51.142;3.732;2023-01-29T00:33:56;47.67;;;28.58;;
59922;SDS011;45778;51.142;3.732;2023-01-29T00:36:22;43.97;;;26.45;;
59922;SDS011;45778;51.142;3.732;2023-01-29T00:38:55;43.17;;;27.10;;
59922;SDS011;45778;51.142;3.732;2023-01-29T00:41:27;45.63;;;27.58;;
59922;SDS011;45778;51.142;3.732;2023-01-29T00:44:12;46.30;;;27.23;;
59922;SDS011;45778;51.142;3.732;2023-01-29T00:46:56;45.65;;;27.55;;
59922;SDS011;45778;51.142;3.732;2023-01-29T00:49:22;44.17;;;28.20;;
59922;SDS011;45778;51.142;3.732;2023-01-29T00:51:48;39.20;;;25.88;;
59922;SDS011;45778;51.142;3.732;2023-01-29T00:54:34;43.83;;;27.10;;
59922;SDS011;45778;51.142;3.732;2023-01-29T00:57:01;44.90;;;26.30;;
59922;SDS011;45778;51.142;3.732;2023-01-29T00:59:27;47.45;;;29.42;;
59922;SDS011;45778;51.142;3.732;2023-01-29T01:01:53;45.80;;;27.30;;
59922;SDS011;45778;51.142;3.732;2023-01-29T01:04:38;43.45;;;27.55;;
59922;SDS011;45778;51.142;3.732;2023-01-29T01:07:04;41.78;;;28.20;;
59922;SDS011;45778;51.142;3.732;2023-01-29T01:09:30;46.45;;;28.55;;
59922;SDS011;45778;51.142;3.732;2023-01-29T01:12:14;44.85;;;27.55;;
59922;SDS011;45778;51.142;3.732;2023-01-29T01:14:40;47.63;;;28.65;;
59922;SDS011;45778;51.142;3.732;2023-01-29T01:17:07;43.33;;;26.85;;
59922;SDS011;45778;51.142;3.732;2023-01-29T01:19:33;49.03;;;28.13;;
59922;SDS011;45778;51.142;3.732;2023-01-29T01:21:59;41.70;;;28.27;;
59922;SDS011;45778;51.142;3.732;2023-01-29T01:24:25;44.97;;;28.50;;
59922;SDS011;45778;51.142;3.732;2023-01-29T01:26:51;47.03;;;28.23;;
59922;SDS011;45778;51.142;3.732;2023-01-29T01:29:17;44.58;;;28.55;;
59922;SDS011;45778;51.142;3.732;2023-01-29T01:31:42;44.80;;;28.20;;
59922;SDS011;45778;51.142;3.732;2023-01-29T01:34:09;48.85;;;28.10;;
59922;SDS011;45778;51.142;3.732;2023-01-29T01:36:35;43.33;;;27.02;;
59922;SDS011;45778;51.142;3.732;2023-01-29T01:39:01;42.60;;;28.30;;
59922;SDS011;45778;51.142;3.732;2023-01-29T01:41:27;43.80;;;27.63;;
59922;SDS011;45778;51.142;3.732;2023-01-29T01:43:55;44.33;;;27.05;;
59922;SDS011;45778;51.142;3.732;2023-01-29T01:46:23;46.53;;;27.33;;
59922;SDS011;45778;51.142;3.732;2023-01-29T01:49:14;46.50;;;28.10;;
59922;SDS011;45778;51.142;3.732;2023-01-29T01:51:43;43.63;;;27.00;;
59922;SDS011;45778;51.142;3.732;2023-01-29T01:54:13;45.58;;;27.92;;
59922;SDS011;45778;51.142;3.732;2023-01-29T01:56:45;42.50;;;28.80;;
59922;SDS011;45778;51.142;3.732;2023-01-29T01:59:15;47.03;;;28.55;;
59922;SDS011;45778;51.142;3.732;2023-01-29T02:01:43;46.35;;;29.50;;
59922;SDS011;45778;51.142;3.732;2023-01-29T02:04:15;47.05;;;29.23;;
59922;SDS011;45778;51.142;3.732;2023-01-29T02:07:03;43.47;;;27.00;;
59922;SDS011;45778;51.142;3.732;2023-01-29T02:09:52;49.25;;;30.08;;
59922;SDS011;45778;51.142;3.732;2023-01-29T02:14:50;47.30;;;27.75;;
59922;SDS011;45778;51.142;3.732;2023-01-29T02:17:17;47.10;;;28.00;;
59922;SDS011;45778;51.142;3.732;2023-01-29T02:31:11;49.25;;;28.80;;
59922;SDS011;45778;51.142;3.732;2023-01-29T02:35:54;48.50;;;28.73;;
59922;SDS011;45778;51.142;3.732;2023-01-29T02:41:15;43.20;;;28.95;;
59922;SDS011;45778;51.142;3.732;2023-01-29T02:49:37;42.65;;;28.90;;
59922;SDS011;45778;51.142;3.732;2023-01-29T02:52:39;46.22;;;26.67;;
59922;SDS011;45778;51.142;3.732;2023-01-29T02:55:34;48.22;;;28.73;;
59922;SDS011;45778;51.142;3.732;2023-01-29T03:01:00;49.72;;;29.48;;
59922;SDS011;45778;51.142;3.732;2023-01-29T03:03:36;46.03;;;29.58;;
59922;SDS011;45778;51.142;3.732;2023-01-29T03:06:19;47.65;;;30.85;;
59922;SDS011;45778;51.142;3.732;2023-01-29T03:08:53;49.63;;;31.15;;
59922;SDS011;45778;51.142;3.732;2023-01-29T03:11:23;48.35;;;31.27;;
59922;SDS011;45778;51.142;3.732;2023-01-29T03:19:13;53.53;;;31.33;;
59922;SDS011;45778;51.142;3.732;2023-01-29T03:22:03;54.33;;;32.30;;
59922;SDS011;45778;51.142;3.732;2023-01-29T03:27:29;50.83;;;31.80;;
59922;SDS011;45778;51.142;3.732;2023-01-29T03:30:20;43.38;;;27.40;;
59922;SDS011;45778;51.142;3.732;2023-01-29T03:33:07;51.40;;;31.30;;
59922;SDS011;45778;51.142;3.732;2023-01-29T03:35:37;46.85;;;26.33;;
59922;SDS011;45778;51.142;3.732;2023-01-29T03:38:09;45.42;;;28.50;;
59922;SDS011;45778;51.142;3.732;2023-01-29T03:40:43;44.38;;;27.50;;
59922;SDS011;45778;51.142;3.732;2023-01-29T03:46:02;43.80;;;26.02;;
59922;SDS011;45778;51.142;3.732;2023-01-29T03:51:26;44.22;;;26.00;;
59922;SDS011;45778;51.142;3.732;2023-01-29T03:54:18;47.08;;;28.35;;
59922;SDS011;45778;51.142;3.732;2023-01-29T03:59:40;41.90;;;26.00;;
59922;SDS011;45778;51.142;3.732;2023-01-29T04:02:26;38.90;;;24.90;;
59922;SDS011;45778;51.142;3.732;2023-01-29T04:04:56;41.20;;;25.58;;
59922;SDS011;45778;51.142;3.732;2023-01-29T04:07:25;41.35;;;24.95;;
59922;SDS011;45778;51.142;3.732;2023-01-29T04:09:59;38.50;;;22.85;;
59922;SDS011;45778;51.142;3.732;2023-01-29T04:12:41;47.10;;;24.95;;
59922;SDS011;45778;51.142;3.732;2023-01-29T04:15:23;39.30;;;23.08;;
59922;SDS011;45778;51.142;3.732;2023-01-29T04:17:52;38.78;;;23.20;;
59922;SDS011;45778;51.142;3.732;2023-01-29T04:20:20;42.30;;;22.05;;
59922;SDS011;45778;51.142;3.732;2023-01-29T04:22:50;36.85;;;22.48;;
59922;SDS011;45778;51.142;3.732;2023-01-29T04:25:18;36.75;;;21.75;;
59922;SDS011;45778;51.142;3.732;2023-01-29T04:28:06;40.40;;;24.00;;
59922;SDS011;45778;51.142;3.732;2023-01-29T04:36:23;42.25;;;24.77;;
59922;SDS011;45778;51.142;3.732;2023-01-29T04:38:56;35.13;;;22.10;;
59922;SDS011;45778;51.142;3.732;2023-01-29T04:41:31;38.47;;;23.23;;
59922;SDS011;45778;51.142;3.732;2023-01-29T04:44:15;34.22;;;21.90;;
59922;SDS011;45778;51.142;3.732;2023-01-29T04:49:26;41.10;;;24.60;;
59922;SDS011;45778;51.142;3.732;2023-01-29T05:00:43;36.53;;;22.88;;
59922;SDS011;45778;51.142;3.732;2023-01-29T05:03:13;39.90;;;24.05;;
59922;SDS011;45778;51.142;3.732;2023-01-29T05:05:41;39.78;;;23.13;;
59922;SDS011;45778;51.142;3.732;2023-01-29T05:08:11;38.80;;;23.52;;
59922;SDS011;45778;51.142;3.732;2023-01-29T05:10:39;38.90;;;22.42;;
59922;SDS011;45778;51.142;3.732;2023-01-29T05:13:07;37.95;;;23.50;;
59922;SDS011;45778;51.142;3.732;2023-01-29T05:15:38;37.72;;;24.25;;
59922;SDS011;45778;51.142;3.732;2023-01-29T05:18:08;38.00;;;22.08;;
59922;SDS011;45778;51.142;3.732;2023-01-29T05:20:37;38.60;;;23.52;;
59922;SDS011;45778;51.142;3.732;2023-01-29T05:23:08;36.50;;;21.55;;
59922;SDS011;45778;51.142;3.732;2023-01-29T05:25:39;40.22;;;23.60;;
59922;SDS011;45778;51.142;3.732;2023-01-29T05:28:05;36.53;;;21.38;;
59922;SDS011;45778;51.142;3.732;2023-01-29T05:35:43;36.13;;;21.73;;
59922;SDS011;45778;51.142;3.732;2023-01-29T05:38:09;33.78;;;20.00;;
59922;SDS011;45778;51.142;3.732;2023-01-29T05:40:35;34.83;;;20.92;;
59922;SDS011;45778;51.142;3.732;2023-01-29T05:43:02;40.38;;;22.48;;
59922;SDS011;45778;51.142;3.732;2023-01-29T05:45:28;34.50;;;19.80;;
59922;SDS011;45778;51.142;3.732;2023-01-29T05:47:55;37.58;;;22.48;;
59922;SDS011;45778;51.142;3.732;2023-01-29T05:50:25;37.55;;;21.98;;
59922;SDS011;45778;51.142;3.732;2023-01-29T05:53:00;38.03;;;22.30;;
59922;SDS011;45778;51.142;3.732;2023-01-29T05:55:27;37.00;;;22.60;;
59922;SDS011;45778;51.142;3.732;2023-01-29T05:57:55;32.63;;;20.52;;
59922;SDS011;45778;51.142;3.732;2023-01-29T06:00:21;35.40;;;21.60;;
59922;SDS011;45778;51.142;3.732;2023-01-29T06:02:48;36.38;;;23.25;;
59922;SDS011;45778;51.142;3.732;2023-01-29T06:05:14;32.25;;;18.40;;
59922;SDS011;45778;51.142;3.732;2023-01-29T06:07:39;29.63;;;18.80;;
59922;SDS011;45778;51.142;3.732;2023-01-29T06:10:10;34.75;;;20.98;;
59922;SDS011;45778;51.142;3.732;2023-01-29T06:12:36;30.60;;;19.23;;
59922;SDS011;45778;51.142;3.732;2023-01-29T06:15:02;29.35;;;17.65;;
59922;SDS011;45778;51.142;3.732;2023-01-29T06:17:28;31.15;;;18.23;;
59922;SDS011;45778;51.142;3.732;2023-01-29T06:19:54;33.03;;;20.33;;
59922;SDS011;45778;51.142;3.732;2023-01-29T06:22:19;31.75;;;18.13;;
59922;SDS011;45778;51.142;3.732;2023-01-29T06:24:45;25.58;;;16.63;;
59922;SDS011;45778;51.142;3.732;2023-01-29T06:27:11;31.42;;;19.45;;
59922;SDS011;45778;51.142;3.732;2023-01-29T06:29:36;29.30;;;18.73;;
59922;SDS011;45778;51.142;3.732;2023-01-29T06:32:02;30.00;;;18.52;;
59922;SDS011;45778;51.142;3.732;2023-01-29T06:34:28;29.50;;;16.85;;
59922;SDS011;45778;51.142;3.732;2023-01-29T06:36:54;28.98;;;18.55;;
59922;SDS011;45778;51.142;3.732;2023-01-29T06:39:19;29.13;;;18.50;;
59922;SDS011;45778;51.142;3.732;2023-01-29T06:41:45;30.20;;;19.23;;
59922;SDS011;45778;51.142;3.732;2023-01-29T06:44:11;33.05;;;17.63;;
59922;SDS011;45778;51.142;3.732;2023-01-29T06:46:36;32.00;;;18.95;;
59922;SDS011;45778;51.142;3.732;2023-01-29T06:49:02;27.40;;;17.95;;
59922;SDS011;45778;51.142;3.732;2023-01-29T06:51:28;30.00;;;17.80;;
59922;SDS011;45778;51.142;3.732;2023-01-29T06:53:54;30.17;;;19.75;;
59922;SDS011;45778;51.142;3.732;2023-01-29T06:56:20;33.88;;;19.00;;
59922;SDS011;45778;51.142;3.732;2023-01-29T06:58:47;29.33;;;17.17;;
59922;SDS011;45778;51.142;3.732;2023-01-29T07:01:13;30.50;;;17.52;;
59922;SDS011;45778;51.142;3.732;2023-01-29T07:03:39;28.15;;;17.90;;
59922;SDS011;45778;51.142;3.732;2023-01-29T07:06:06;29.58;;;17.92;;
59922;SDS011;45778;51.142;3.732;2023-01-29T07:08:36;30.38;;;18.35;;
59922;SDS011;45778;51.142;3.732;2023-01-29T07:11:02;28.40;;;18.02;;
59922;SDS011;45778;51.142;3.732;2023-01-29T07:13:28;30.77;;;19.50;;
59922;SDS011;45778;51.142;3.732;2023-01-29T07:15:58;28.85;;;17.85;;
59922;SDS011;45778;51.142;3.732;2023-01-29T07:18:24;32.50;;;19.02;;
59922;SDS011;45778;51.142;3.732;2023-01-29T07:20:51;32.75;;;18.33;;
59922;SDS011;45778;51.142;3.732;2023-01-29T07:23:16;32.75;;;18.45;;
59922;SDS011;45778;51.142;3.732;2023-01-29T07:25:42;29.45;;;18.27;;
59922;SDS011;45778;51.142;3.732;2023-01-29T07:28:08;30.50;;;19.05;;
59922;SDS011;45778;51.142;3.732;2023-01-29T07:30:34;31.20;;;18.92;;
59922;SDS011;45778;51.142;3.732;2023-01-29T07:33:01;30.38;;;18.75;;
59922;SDS011;45778;51.142;3.732;2023-01-29T07:35:28;32.80;;;19.73;;
59922;SDS011;45778;51.142;3.732;2023-01-29T07:37:53;29.00;;;19.17;;
59922;SDS011;45778;51.142;3.732;2023-01-29T07:40:20;34.00;;;21.00;;
59922;SDS011;45778;51.142;3.732;2023-01-29T07:42:46;29.23;;;19.58;;
59922;SDS011;45778;51.142;3.732;2023-01-29T07:45:12;30.42;;;18.55;;
59922;SDS011;45778;51.142;3.732;2023-01-29T07:47:37;32.10;;;20.55;;
59922;SDS011;45778;51.142;3.732;2023-01-29T07:50:03;30.60;;;19.40;;
59922;SDS011;45778;51.142;3.732;2023-01-29T07:52:30;30.02;;;18.40;;
59922;SDS011;45778;51.142;3.732;2023-01-29T07:54:57;29.25;;;19.35;;
59922;SDS011;45778;51.142;3.732;2023-01-29T07:57:23;32.72;;;20.15;;
59922;SDS011;45778;51.142;3.732;2023-01-29T07:59:49;29.65;;;18.75;;
59922;SDS011;45778;51.142;3.732;2023-01-29T08:02:15;30.42;;;19.80;;
59922;SDS011;45778;51.142;3.732;2023-01-29T08:04:41;29.70;;;19.00;;
59922;SDS011;45778;51.142;3.732;2023-01-29T08:07:06;32.20;;;20.25;;
59922;SDS011;45778;51.142;3.732;2023-01-29T08:09:33;31.27;;;18.98;;
59922;SDS011;45778;51.142;3.732;2023-01-29T08:12:00;29.25;;;18.45;;
59922;SDS011;45778;51.142;3.732;2023-01-29T08:14:26;31.35;;;19.40;;
59922;SDS011;45778;51.142;3.732;2023-01-29T08:16:51;29.40;;;18.80;;
59922;SDS011;45778;51.142;3.732;2023-01-29T08:19:17;32.88;;;20.02;;
59922;SDS011;45778;51.142;3.732;2023-01-29T08:21:43;33.17;;;18.27;;
59922;SDS011;45778;51.142;3.732;2023-01-29T08:24:08;29.42;;;20.35;;
59922;SDS011;45778;51.142;3.732;2023-01-29T08:26:34;27.92;;;17.75;;
59922;SDS011;45778;51.142;3.732;2023-01-29T08:29:00;29.42;;;17.73;;
59922;SDS011;45778;51.142;3.732;2023-01-29T08:31:25;27.15;;;16.17;;
59922;SDS011;45778;51.142;3.732;2023-01-29T08:33:54;27.38;;;16.05;;
59922;SDS011;45778;51.142;3.732;2023-01-29T08:36:20;28.20;;;18.60;;
59922;SDS011;45778;51.142;3.732;2023-01-29T08:38:46;28.10;;;17.27;;
59922;SDS011;45778;51.142;3.732;2023-01-29T08:41:12;28.48;;;17.83;;
59922;SDS011;45778;51.142;3.732;2023-01-29T08:43:38;29.38;;;17.65;;
59922;SDS011;45778;51.142;3.732;2023-01-29T08:46:04;33.00;;;19.73;;
59922;SDS011;45778;51.142;3.732;2023-01-29T08:48:31;30.30;;;16.45;;
59922;SDS011;45778;51.142;3.732;2023-01-29T08:50:57;26.00;;;17.00;;
59922;SDS011;45778;51.142;3.732;2023-01-29T08:53:25;27.33;;;17.10;;
59922;SDS011;45778;51.142;3.732;2023-01-29T08:55:51;26.77;;;17.63;;
59922;SDS011;45778;51.142;3.732;2023-01-29T08:58:17;27.38;;;16.15;;
59922;SDS011;45778;51.142;3.732;2023-01-29T09:00:43;22.85;;;15.18;;
59922;SDS011;45778;51.142;3.732;2023-01-29T09:03:09;26.92;;;17.05;;
59922;SDS011;45778;51.142;3.732;2023-01-29T09:05:35;30.83;;;19.40;;
59922;SDS011;45778;51.142;3.732;2023-01-29T09:08:03;29.75;;;19.67;;
59922;SDS011;45778;51.142;3.732;2023-01-29T09:10:29;25.30;;;16.80;;
59922;SDS011;45778;51.142;3.732;2023-01-29T09:12:55;30.67;;;19.63;;
59922;SDS011;45778;51.142;3.732;2023-01-29T09:15:21;31.75;;;18.73;;
59922;SDS011;45778;51.142;3.732;2023-01-29T09:17:47;32.20;;;16.85;;
59922;SDS011;45778;51.142;3.732;2023-01-29T09:20:15;27.17;;;14.45;;
59922;SDS011;45778;51.142;3.732;2023-01-29T09:22:42;28.90;;;18.00;;
59922;SDS011;45778;51.142;3.732;2023-01-29T09:25:08;39.35;;;21.90;;
59922;SDS011;45778;51.142;3.732;2023-01-29T09:27:34;67.43;;;32.00;;
59922;SDS011;45778;51.142;3.732;2023-01-29T09:30:00;33.03;;;20.27;;
59922;SDS011;45778;51.142;3.732;2023-01-29T09:32:26;29.05;;;17.23;;
59922;SDS011;45778;51.142;3.732;2023-01-29T09:34:54;58.95;;;32.15;;
59922;SDS011;45778;51.142;3.732;2023-01-29T09:37:20;30.50;;;17.27;;
59922;SDS011;45778;51.142;3.732;2023-01-29T09:39:47;34.55;;;21.00;;
59922;SDS011;45778;51.142;3.732;2023-01-29T09:42:23;30.83;;;17.15;;
59922;SDS011;45778;51.142;3.732;2023-01-29T09:45:10;30.58;;;19.13;;
59922;SDS011;45778;51.142;3.732;2023-01-29T09:47:43;26.08;;;15.70;;
59922;SDS011;45778;51.142;3.732;2023-01-29T09:50:17;26.73;;;16.55;;
59922;SDS011;45778;51.142;3.732;2023-01-29T09:52:49;28.98;;;16.85;;
59922;SDS011;45778;51.142;3.732;2023-01-29T09:55:38;26.55;;;16.20;;
59922;SDS011;45778;51.142;3.732;2023-01-29T09:58:15;25.63;;;16.00;;
59922;SDS011;45778;51.142;3.732;2023-01-29T10:01:11;26.80;;;16.42;;
59922;SDS011;45778;51.142;3.732;2023-01-29T10:03:54;27.63;;;17.73;;
59922;SDS011;45778;51.142;3.732;2023-01-29T10:17:53;25.63;;;16.35;;
59922;SDS011;45778;51.142;3.732;2023-01-29T10:23:14;28.83;;;17.85;;
59922;SDS011;45778;51.142;3.732;2023-01-29T10:25:52;25.05;;;16.60;;
59922;SDS011;45778;51.142;3.732;2023-01-29T10:28:26;27.77;;;16.02;;
59922;SDS011;45778;51.142;3.732;2023-01-29T10:31:03;24.48;;;15.38;;
59922;SDS011;45778;51.142;3.732;2023-01-29T10:36:41;26.80;;;17.27;;
59922;SDS011;45778;51.142;3.732;2023-01-29T10:41:52;27.70;;;17.58;;
59922;SDS011;45778;51.142;3.732;2023-01-29T10:44:35;23.02;;;13.75;;
59922;SDS011;45778;51.142;3.732;2023-01-29T10:50:36;22.63;;;14.52;;
59922;SDS011;45778;51.142;3.732;2023-01-29T11:01:09;29.10;;;17.92;;
59922;SDS011;45778;51.142;3.732;2023-01-29T11:03:35;24.80;;;15.07;;
59922;SDS011;45778;51.142;3.732;2023-01-29T11:11:43;25.65;;;16.70;;
59922;SDS011;45778;51.142;3.732;2023-01-29T11:14:26;20.45;;;13.23;;
59922;SDS011;45778;51.142;3.732;2023-01-29T11:16:55;22.02;;;14.93;;
59922;SDS011;45778;51.142;3.732;2023-01-29T11:19:38;22.50;;;16.58;;
59922;SDS011;45778;51.142;3.732;2023-01-29T11:22:10;20.88;;;15.65;;
59922;SDS011;45778;51.142;3.732;2023-01-29T11:24:37;24.23;;;15.85;;
59922;SDS011;45778;51.142;3.732;2023-01-29T11:27:02;27.85;;;15.63;;
59922;SDS011;45778;51.142;3.732;2023-01-29T11:29:50;20.40;;;11.55;;
59922;SDS011;45778;51.142;3.732;2023-01-29T11:37:36;23.52;;;12.45;;
59922;SDS011;45778;51.142;3.732;2023-01-29T11:40:27;21.85;;;12.93;;
59922;SDS011;45778;51.142;3.732;2023-01-29T11:45:56;18.40;;;11.95;;
59922;SDS011;45778;51.142;3.732;2023-01-29T11:48:33;23.33;;;14.52;;
59922;SDS011;45778;51.142;3.732;2023-01-29T11:51:06;19.35;;;12.63;;
59922;SDS011;45778;51.142;3.732;2023-01-29T11:53:37;19.00;;;13.43;;
59922;SDS011;45778;51.142;3.732;2023-01-29T11:56:14;19.05;;;12.93;;
59922;SDS011;45778;51.142;3.732;2023-01-29T11:58:41;20.88;;;13.13;;
59922;SDS011;45778;51.142;3.732;2023-01-29T12:01:07;20.45;;;11.98;;
59922;SDS011;45778;51.142;3.732;2023-01-29T12:03:52;17.30;;;11.35;;
59922;SDS011;45778;51.142;3.732;2023-01-29T12:06:20;18.27;;;11.95;;
59922;SDS011;45778;51.142;3.732;2023-01-29T12:08:52;20.52;;;12.52;;
59922;SDS011;45778;51.142;3.732;2023-01-29T12:11:24;19.38;;;11.35;;
59922;SDS011;45778;51.142;3.732;2023-01-29T12:13:56;24.83;;;12.32;;
59922;SDS011;45778;51.142;3.732;2023-01-29T12:16:30;19.52;;;12.82;;
59922;SDS011;45778;51.142;3.732;2023-01-29T12:19:06;20.05;;;13.05;;
59922;SDS011;45778;51.142;3.732;2023-01-29T12:21:48;19.58;;;12.07;;
59922;SDS011;45778;51.142;3.732;2023-01-29T12:26:51;21.42;;;12.70;;
59922;SDS011;45778;51.142;3.732;2023-01-29T12:35:45;17.50;;;11.18;;
59922;SDS011;45778;51.142;3.732;2023-01-29T12:38:21;17.13;;;11.27;;
59922;SDS011;45778;51.142;3.732;2023-01-29T12:43:50;17.63;;;11.38;;
59922;SDS011;45778;51.142;3.732;2023-01-29T12:46:26;14.48;;;8.95;;
59922;SDS011;45778;51.142;3.732;2023-01-29T12:48:54;24.60;;;13.75;;
59922;SDS011;45778;51.142;3.732;2023-01-29T12:51:25;14.02;;;9.52;;
59922;SDS011;45778;51.142;3.732;2023-01-29T12:56:33;23.13;;;13.13;;
59922;SDS011;45778;51.142;3.732;2023-01-29T12:59:16;18.48;;;11.52;;
59922;SDS011;45778;51.142;3.732;2023-01-29T13:01:47;21.33;;;13.07;;
59922;SDS011;45778;51.142;3.732;2023-01-29T13:06:48;17.15;;;11.82;;
59922;SDS011;45778;51.142;3.732;2023-01-29T13:09:22;18.65;;;11.25;;
59922;SDS011;45778;51.142;3.732;2023-01-29T13:12:10;21.95;;;13.05;;
59922;SDS011;45778;51.142;3.732;2023-01-29T13:14:44;25.98;;;15.63;;
59922;SDS011;45778;51.142;3.732;2023-01-29T13:17:14;21.48;;;14.10;;
59922;SDS011;45778;51.142;3.732;2023-01-29T13:19:49;22.20;;;14.45;;
59922;SDS011;45778;51.142;3.732;2023-01-29T13:22:27;19.30;;;10.85;;
59922;SDS011;45778;51.142;3.732;2023-01-29T13:24:57;19.40;;;11.68;;
59922;SDS011;45778;51.142;3.732;2023-01-29T13:27:24;24.20;;;15.05;;
59922;SDS011;45778;51.142;3.732;2023-01-29T13:29:52;17.50;;;11.23;;
59922;SDS011;45778;51.142;3.732;2023-01-29T13:32:27;25.10;;;16.63;;
59922;SDS011;45778;51.142;3.732;2023-01-29T13:34:54;21.85;;;13.52;;
59922;SDS011;45778;51.142;3.732;2023-01-29T13:37:30;23.77;;;13.70;;
59922;SDS011;45778;51.142;3.732;2023-01-29T13:39:58;25.05;;;11.85;;
59922;SDS011;45778;51.142;3.732;2023-01-29T13:42:39;21.27;;;12.60;;
59922;SDS011;45778;51.142;3.732;2023-01-29T13:45:16;13.07;;;8.38;;
59922;SDS011;45778;51.142;3.732;2023-01-29T13:48:07;20.77;;;13.45;;
59922;SDS011;45778;51.142;3.732;2023-01-29T13:50:55;20.30;;;12.82;;
59922;SDS011;45778;51.142;3.732;2023-01-29T13:53:30;23.30;;;15.20;;
59922;SDS011;45778;51.142;3.732;2023-01-29T13:59:08;24.30;;;13.82;;
59922;SDS011;45778;51.142;3.732;2023-01-29T14:06:46;27.52;;;14.18;;
59922;SDS011;45778;51.142;3.732;2023-01-29T14:12:03;27.65;;;16.35;;
59922;SDS011;45778;51.142;3.732;2023-01-29T14:17:25;30.83;;;15.57;;
59922;SDS011;45778;51.142;3.732;2023-01-29T14:19:52;25.17;;;16.30;;
59922;SDS011;45778;51.142;3.732;2023-01-29T14:22:27;22.35;;;14.43;;
59922;SDS011;45778;51.142;3.732;2023-01-29T14:24:56;23.95;;;15.00;;
59922;SDS011;45778;51.142;3.732;2023-01-29T14:27:27;29.67;;;17.55;;
59922;SDS011;45778;51.142;3.732;2023-01-29T14:30:00;26.23;;;16.90;;
59922;SDS011;45778;51.142;3.732;2023-01-29T14:32:31;27.98;;;17.38;;
59922;SDS011;45778;51.142;3.732;2023-01-29T14:37:49;24.08;;;14.23;;
59922;SDS011;45778;51.142;3.732;2023-01-29T14:40:19;23.23;;;14.60;;
59922;SDS011;45778;51.142;3.732;2023-01-29T14:42:57;23.88;;;15.55;;
59922;SDS011;45778;51.142;3.732;2023-01-29T14:45:31;26.00;;;15.88;;
59922;SDS011;45778;51.142;3.732;2023-01-29T14:48:00;21.17;;;11.98;;
59922;SDS011;45778;51.142;3.732;2023-01-29T14:53:43;24.02;;;15.57;;
59922;SDS011;45778;51.142;3.732;2023-01-29T14:58:35;22.95;;;13.63;;
59922;SDS011;45778;51.142;3.732;2023-01-29T15:01:11;23.95;;;13.75;;
59922;SDS011;45778;51.142;3.732;2023-01-29T15:04:17;27.63;;;15.93;;
59922;SDS011;45778;51.142;3.732;2023-01-29T15:09:37;26.85;;;16.58;;
59922;SDS011;45778;51.142;3.732;2023-01-29T15:12:12;25.48;;;15.90;;
59922;SDS011;45778;51.142;3.732;2023-01-29T15:20:37;25.55;;;14.98;;
59922;SDS011;45778;51.142;3.732;2023-01-29T15:23:21;24.13;;;13.75;;
59922;SDS011;45778;51.142;3.732;2023-01-29T15:25:48;20.65;;;12.05;;
59922;SDS011;45778;51.142;3.732;2023-01-29T15:28:15;26.23;;;16.08;;
59922;SDS011;45778;51.142;3.732;2023-01-29T15:30:41;27.00;;;16.95;;
59922;SDS011;45778;51.142;3.732;2023-01-29T15:33:09;24.63;;;15.43;;
59922;SDS011;45778;51.142;3.732;2023-01-29T15:35:41;24.60;;;17.30;;
59922;SDS011;45778;51.142;3.732;2023-01-29T15:38:14;24.00;;;15.82;;
59922;SDS011;45778;51.142;3.732;2023-01-29T15:41:14;24.90;;;14.02;;
59922;SDS011;45778;51.142;3.732;2023-01-29T15:43:45;25.85;;;16.30;;
59922;SDS011;45778;51.142;3.732;2023-01-29T15:46:23;20.08;;;12.82;;
59922;SDS011;45778;51.142;3.732;2023-01-29T15:48:51;24.85;;;16.20;;
59922;SDS011;45778;51.142;3.732;2023-01-29T15:51:20;28.55;;;15.90;;
59922;SDS011;45778;51.142;3.732;2023-01-29T15:53:50;25.25;;;16.58;;
59922;SDS011;45778;51.142;3.732;2023-01-29T15:56:20;24.10;;;12.90;;
59922;SDS011;45778;51.142;3.732;2023-01-29T16:01:19;23.50;;;14.98;;
59922;SDS011;45778;51.142;3.732;2023-01-29T16:03:47;21.20;;;13.82;;
59922;SDS011;45778;51.142;3.732;2023-01-29T16:06:14;22.00;;;14.68;;
59922;SDS011;45778;51.142;3.732;2023-01-29T16:08:40;25.15;;;14.50;;
59922;SDS011;45778;51.142;3.732;2023-01-29T16:11:10;25.15;;;14.45;;
59922;SDS011;45778;51.142;3.732;2023-01-29T16:13:38;24.08;;;13.75;;
59922;SDS011;45778;51.142;3.732;2023-01-29T16:18:38;22.75;;;14.90;;
59922;SDS011;45778;51.142;3.732;2023-01-29T16:21:20;25.55;;;14.68;;
59922;SDS011;45778;51.142;3.732;2023-01-29T16:23:52;21.80;;;12.50;;
59922;SDS011;45778;51.142;3.732;2023-01-29T16:26:43;28.27;;;16.65;;
59922;SDS011;45778;51.142;3.732;2023-01-29T16:29:15;29.30;;;17.95;;
59922;SDS011;45778;51.142;3.732;2023-01-29T16:31:44;29.50;;;16.75;;
59922;SDS011;45778;51.142;3.732;2023-01-29T16:34:20;27.55;;;17.48;;
59922;SDS011;45778;51.142;3.732;2023-01-29T16:36:48;26.33;;;16.20;;
59922;SDS011;45778;51.142;3.732;2023-01-29T16:39:16;26.92;;;14.52;;
59922;SDS011;45778;51.142;3.732;2023-01-29T16:41:44;26.38;;;16.58;;
59922;SDS011;45778;51.142;3.732;2023-01-29T16:44:31;27.20;;;15.60;;
59922;SDS011;45778;51.142;3.732;2023-01-29T16:47:13;20.63;;;11.88;;
59922;SDS011;45778;51.142;3.732;2023-01-29T16:49:56;23.00;;;12.13;;
59922;SDS011;45778;51.142;3.732;2023-01-29T16:57:48;31.48;;;16.35;;
59922;SDS011;45778;51.142;3.732;2023-01-29T17:00:21;31.23;;;18.02;;
59922;SDS011;45778;51.142;3.732;2023-01-29T17:02:47;29.45;;;18.83;;
59922;SDS011;45778;51.142;3.732;2023-01-29T17:05:19;27.27;;;17.73;;
59922;SDS011;45778;51.142;3.732;2023-01-29T17:07:57;26.55;;;14.32;;
59922;SDS011;45778;51.142;3.732;2023-01-29T17:10:23;28.70;;;15.65;;
59922;SDS011;45778;51.142;3.732;2023-01-29T17:12:58;19.05;;;11.65;;
59922;SDS011;45778;51.142;3.732;2023-01-29T17:15:44;26.45;;;16.85;;
59922;SDS011;45778;51.142;3.732;2023-01-29T17:18:16;25.50;;;16.55;;
59922;SDS011;45778;51.142;3.732;2023-01-29T17:20:46;27.30;;;16.05;;
59922;SDS011;45778;51.142;3.732;2023-01-29T17:23:12;25.67;;;13.95;;
59922;SDS011;45778;51.142;3.732;2023-01-29T17:25:38;34.53;;;19.00;;
59922;SDS011;45778;51.142;3.732;2023-01-29T17:28:04;27.45;;;17.48;;
59922;SDS011;45778;51.142;3.732;2023-01-29T17:30:31;32.17;;;18.90;;
59922;SDS011;45778;51.142;3.732;2023-01-29T17:33:07;30.67;;;18.70;;
59922;SDS011;45778;51.142;3.732;2023-01-29T17:35:38;28.80;;;18.48;;